• Join FlightAware (Why Join?)
  • Login
  • US Flag 
02:23AM EDT


 

Airport Tracker/Info


-or-


 

Live Flight TrackerFlight Track Log ✈ N1926A ✈ 28-Apr-2013 ✈ 41A - KMGM

Flight Track Log - Related Links

Times and Time Zones

All times are in EDT time to prevent confusion due to time zone crossing. See the N1926A flight status page for this flight to view local times or setup timezone preferences in your user account.

Time Position Orientation Groundspeed Altitude Reporting Facility
EDT Latitude Longitude Course Direction KTS MPH feet Rate Location/Type
08:03PM 32.4045 -86.1017 246° West  Level FlightAware Approximate
08:04PM 32.3893 -86.1413 246° West  Level FlightAware Approximate
08:05PM 32.3741 -86.1808 245° Southwest  Level FlightAware Approximate
08:06PM 32.3639 -86.2213 235° Southwest  Level FlightAware Approximate
08:07PM 32.3426 -86.2567 235° Southwest  Level FlightAware Approximate
08:08PM 32.3214 -86.2922 235° Southwest  Level FlightAware Approximate
08:09PM 32.3101 -86.3329 257° West  Level FlightAware Approximate
08:10PM 32.3016 -86.3752 257° West  Level FlightAware Approximate
08:11PM 32.3000 -86.3833 257° West  Level FlightAware Approximate
08:12PM 32.3006 -86.3940 257° West  Level Estimated
08:13PM 32.3006 -86.3940 257° West  Level Estimated
08:14PM 32.3006 -86.3940 257° West  Level Estimated
08:15PM 32.3006 -86.3940 257° West  Level Estimated
08:16PM 32.3006 -86.3940 257° West  Level Estimated
08:17PM 32.3006 -86.3940 257° West  Level Estimated
08:18PM 32.3006 -86.3940 257° West  Level Estimated
08:19PM 32.3006 -86.3940 257° West  Level Estimated
08:20PM 32.3006 -86.3940 257° West  Level Estimated
08:21PM 32.3006 -86.3940 257° West  Level Estimated
08:22PM 32.3006 -86.3940 257° West  Level Estimated
08:23PM 32.3006 -86.3940 257° West  Level Estimated
08:24PM 32.3006 -86.3940 257° West  Level Estimated
08:25PM 32.3006 -86.3940 257° West  Level Estimated
08:26PM 32.3006 -86.3940 257° West  Level Estimated